sensor_id;sensor_type;location;lat;lon;timestamp;P1;durP1;ratioP1;P2;durP2;ratioP2
20383;SDS011;46458;50.966;7.002;2023-06-22T00:02:27;5.15;;;4.65;;
20383;SDS011;46458;50.966;7.002;2023-06-22T00:04:55;5.55;;;5.05;;
20383;SDS011;46458;50.966;7.002;2023-06-22T00:07:24;5.28;;;4.68;;
20383;SDS011;46458;50.966;7.002;2023-06-22T00:09:53;5.25;;;4.60;;
20383;SDS011;46458;50.966;7.002;2023-06-22T00:12:22;5.22;;;4.60;;
20383;SDS011;46458;50.966;7.002;2023-06-22T00:14:51;8.88;;;4.85;;
20383;SDS011;46458;50.966;7.002;2023-06-22T00:17:20;5.03;;;4.53;;
20383;SDS011;46458;50.966;7.002;2023-06-22T00:19:52;5.03;;;4.53;;
20383;SDS011;46458;50.966;7.002;2023-06-22T00:22:23;5.35;;;4.40;;
20383;SDS011;46458;50.966;7.002;2023-06-22T00:24:56;5.05;;;4.45;;
20383;SDS011;46458;50.966;7.002;2023-06-22T00:27:24;5.00;;;4.45;;
20383;SDS011;46458;50.966;7.002;2023-06-22T00:29:53;4.80;;;4.40;;
20383;SDS011;46458;50.966;7.002;2023-06-22T00:32:22;5.60;;;4.97;;
20383;SDS011;46458;50.966;7.002;2023-06-22T00:34:54;5.20;;;4.38;;
20383;SDS011;46458;50.966;7.002;2023-06-22T00:37:23;5.07;;;4.68;;
20383;SDS011;46458;50.966;7.002;2023-06-22T00:39:54;5.38;;;4.65;;
20383;SDS011;46458;50.966;7.002;2023-06-22T00:42:24;5.80;;;5.20;;
20383;SDS011;46458;50.966;7.002;2023-06-22T00:44:53;4.80;;;4.38;;
20383;SDS011;46458;50.966;7.002;2023-06-22T00:47:23;5.00;;;4.60;;
20383;SDS011;46458;50.966;7.002;2023-06-22T00:49:54;4.72;;;4.32;;
20383;SDS011;46458;50.966;7.002;2023-06-22T00:52:24;5.07;;;4.57;;
20383;SDS011;46458;50.966;7.002;2023-06-22T00:54:56;5.70;;;4.85;;
20383;SDS011;46458;50.966;7.002;2023-06-22T00:57:28;5.18;;;4.45;;
20383;SDS011;46458;50.966;7.002;2023-06-22T00:59:58;5.13;;;4.40;;
20383;SDS011;46458;50.966;7.002;2023-06-22T01:02:26;4.90;;;4.40;;
20383;SDS011;46458;50.966;7.002;2023-06-22T01:05:01;4.97;;;4.47;;
20383;SDS011;46458;50.966;7.002;2023-06-22T01:07:39;5.40;;;4.40;;
20383;SDS011;46458;50.966;7.002;2023-06-22T01:10:14;5.07;;;4.57;;
20383;SDS011;46458;50.966;7.002;2023-06-22T01:12:51;5.15;;;4.65;;
20383;SDS011;46458;50.966;7.002;2023-06-22T01:15:23;5.13;;;4.18;;
20383;SDS011;46458;50.966;7.002;2023-06-22T01:17:56;5.85;;;4.80;;
20383;SDS011;46458;50.966;7.002;2023-06-22T01:20:32;5.07;;;4.47;;
20383;SDS011;46458;50.966;7.002;2023-06-22T01:23:07;6.22;;;4.72;;
20383;SDS011;46458;50.966;7.002;2023-06-22T01:25:43;6.03;;;4.53;;
20383;SDS011;46458;50.966;7.002;2023-06-22T01:28:20;6.53;;;4.30;;
20383;SDS011;46458;50.966;7.002;2023-06-22T01:30:58;5.25;;;4.47;;
20383;SDS011;46458;50.966;7.002;2023-06-22T01:33:32;4.97;;;4.57;;
20383;SDS011;46458;50.966;7.002;2023-06-22T01:36:03;5.35;;;4.50;;
20383;SDS011;46458;50.966;7.002;2023-06-22T01:38:34;4.72;;;4.22;;
20383;SDS011;46458;50.966;7.002;2023-06-22T01:41:07;4.50;;;4.10;;
20383;SDS011;46458;50.966;7.002;2023-06-22T01:43:38;4.82;;;4.43;;
20383;SDS011;46458;50.966;7.002;2023-06-22T01:46:13;5.82;;;4.72;;
20383;SDS011;46458;50.966;7.002;2023-06-22T01:48:45;6.35;;;4.63;;
20383;SDS011;46458;50.966;7.002;2023-06-22T01:51:14;4.80;;;4.13;;
20383;SDS011;46458;50.966;7.002;2023-06-22T01:53:44;4.90;;;4.40;;
20383;SDS011;46458;50.966;7.002;2023-06-22T01:56:13;5.28;;;4.78;;
20383;SDS011;46458;50.966;7.002;2023-06-22T01:58:49;5.20;;;4.22;;
20383;SDS011;46458;50.966;7.002;2023-06-22T02:01:27;4.35;;;3.95;;
20383;SDS011;46458;50.966;7.002;2023-06-22T02:04:01;4.85;;;4.38;;
20383;SDS011;46458;50.966;7.002;2023-06-22T02:06:34;4.57;;;4.18;;
20383;SDS011;46458;50.966;7.002;2023-06-22T02:09:07;4.28;;;3.88;;
20383;SDS011;46458;50.966;7.002;2023-06-22T02:11:40;5.05;;;4.32;;
20383;SDS011;46458;50.966;7.002;2023-06-22T02:14:12;5.05;;;4.03;;
20383;SDS011;46458;50.966;7.002;2023-06-22T02:16:46;5.28;;;4.20;;
20383;SDS011;46458;50.966;7.002;2023-06-22T02:19:15;5.55;;;3.90;;
20383;SDS011;46458;50.966;7.002;2023-06-22T02:21:44;4.60;;;4.20;;
20383;SDS011;46458;50.966;7.002;2023-06-22T02:24:13;5.53;;;4.63;;
20383;SDS011;46458;50.966;7.002;2023-06-22T02:26:42;4.75;;;4.15;;
20383;SDS011;46458;50.966;7.002;2023-06-22T02:29:11;4.43;;;4.03;;
20383;SDS011;46458;50.966;7.002;2023-06-22T02:31:42;4.85;;;4.45;;
20383;SDS011;46458;50.966;7.002;2023-06-22T02:34:17;4.45;;;3.95;;
20383;SDS011;46458;50.966;7.002;2023-06-22T02:36:46;4.60;;;4.10;;
20383;SDS011;46458;50.966;7.002;2023-06-22T02:39:16;5.80;;;3.78;;
20383;SDS011;46458;50.966;7.002;2023-06-22T02:41:48;4.72;;;4.22;;
20383;SDS011;46458;50.966;7.002;2023-06-22T02:44:17;4.70;;;4.10;;
20383;SDS011;46458;50.966;7.002;2023-06-22T02:46:48;4.97;;;4.00;;
20383;SDS011;46458;50.966;7.002;2023-06-22T02:49:22;5.10;;;3.80;;
20383;SDS011;46458;50.966;7.002;2023-06-22T02:51:51;4.22;;;3.83;;
20383;SDS011;46458;50.966;7.002;2023-06-22T02:54:21;4.43;;;3.75;;
20383;SDS011;46458;50.966;7.002;2023-06-22T02:56:53;5.68;;;4.10;;
20383;SDS011;46458;50.966;7.002;2023-06-22T02:59:22;5.90;;;4.18;;
20383;SDS011;46458;50.966;7.002;2023-06-22T03:01:59;4.68;;;3.88;;
20383;SDS011;46458;50.966;7.002;2023-06-22T03:04:33;5.13;;;4.35;;
20383;SDS011;46458;50.966;7.002;2023-06-22T03:07:02;4.97;;;4.43;;
20383;SDS011;46458;50.966;7.002;2023-06-22T03:09:33;4.78;;;4.30;;
20383;SDS011;46458;50.966;7.002;2023-06-22T03:12:06;4.07;;;3.67;;
20383;SDS011;46458;50.966;7.002;2023-06-22T03:14:44;4.18;;;3.78;;
20383;SDS011;46458;50.966;7.002;2023-06-22T03:17:14;5.38;;;4.22;;
20383;SDS011;46458;50.966;7.002;2023-06-22T03:19:45;4.97;;;3.70;;
20383;SDS011;46458;50.966;7.002;2023-06-22T03:22:14;4.43;;;3.92;;
20383;SDS011;46458;50.966;7.002;2023-06-22T03:24:43;6.13;;;4.30;;
20383;SDS011;46458;50.966;7.002;2023-06-22T03:27:12;6.35;;;4.25;;
20383;SDS011;46458;50.966;7.002;2023-06-22T03:29:41;5.13;;;4.60;;
20383;SDS011;46458;50.966;7.002;2023-06-22T03:32:10;6.20;;;4.55;;
20383;SDS011;46458;50.966;7.002;2023-06-22T03:34:39;4.80;;;4.30;;
20383;SDS011;46458;50.966;7.002;2023-06-22T03:37:15;5.38;;;4.70;;
20383;SDS011;46458;50.966;7.002;2023-06-22T03:39:44;5.40;;;4.40;;
20383;SDS011;46458;50.966;7.002;2023-06-22T03:42:15;4.65;;;4.25;;
20383;SDS011;46458;50.966;7.002;2023-06-22T03:44:45;5.60;;;4.88;;
20383;SDS011;46458;50.966;7.002;2023-06-22T03:47:14;5.63;;;5.00;;
20383;SDS011;46458;50.966;7.002;2023-06-22T03:49:43;5.60;;;4.40;;
20383;SDS011;46458;50.966;7.002;2023-06-22T03:52:15;4.72;;;4.30;;
20383;SDS011;46458;50.966;7.002;2023-06-22T03:54:47;5.13;;;4.63;;
20383;SDS011;46458;50.966;7.002;2023-06-22T03:57:16;5.70;;;5.10;;
20383;SDS011;46458;50.966;7.002;2023-06-22T03:59:45;6.70;;;6.10;;
20383;SDS011;46458;50.966;7.002;2023-06-22T04:02:14;5.70;;;5.18;;
20383;SDS011;46458;50.966;7.002;2023-06-22T04:04:45;6.05;;;5.13;;
20383;SDS011;46458;50.966;7.002;2023-06-22T04:07:19;5.80;;;5.30;;
20383;SDS011;46458;50.966;7.002;2023-06-22T04:09:48;5.75;;;5.20;;
20383;SDS011;46458;50.966;7.002;2023-06-22T04:12:18;6.18;;;5.57;;
20383;SDS011;46458;50.966;7.002;2023-06-22T04:14:47;6.05;;;5.45;;
20383;SDS011;46458;50.966;7.002;2023-06-22T04:17:16;9.93;;;5.50;;
20383;SDS011;46458;50.966;7.002;2023-06-22T04:19:44;6.05;;;5.45;;
20383;SDS011;46458;50.966;7.002;2023-06-22T04:22:13;7.32;;;5.88;;
20383;SDS011;46458;50.966;7.002;2023-06-22T04:24:48;6.38;;;5.78;;
20383;SDS011;46458;50.966;7.002;2023-06-22T04:27:18;6.10;;;5.50;;
20383;SDS011;46458;50.966;7.002;2023-06-22T04:29:54;6.43;;;5.65;;
20383;SDS011;46458;50.966;7.002;2023-06-22T04:32:25;6.50;;;5.82;;
20383;SDS011;46458;50.966;7.002;2023-06-22T04:34:54;8.52;;;6.30;;
20383;SDS011;46458;50.966;7.002;2023-06-22T04:37:23;8.90;;;6.57;;
20383;SDS011;46458;50.966;7.002;2023-06-22T04:39:54;8.52;;;6.95;;
20383;SDS011;46458;50.966;7.002;2023-06-22T04:42:24;7.15;;;6.55;;
20383;SDS011;46458;50.966;7.002;2023-06-22T04:44:57;7.78;;;7.00;;
20383;SDS011;46458;50.966;7.002;2023-06-22T04:47:26;7.25;;;6.55;;
20383;SDS011;46458;50.966;7.002;2023-06-22T04:49:58;8.10;;;7.30;;
20383;SDS011;46458;50.966;7.002;2023-06-22T04:52:31;7.60;;;6.90;;
20383;SDS011;46458;50.966;7.002;2023-06-22T04:55:03;7.95;;;7.22;;
20383;SDS011;46458;50.966;7.002;2023-06-22T04:57:32;7.70;;;7.00;;
20383;SDS011;46458;50.966;7.002;2023-06-22T05:00:07;8.30;;;7.50;;
20383;SDS011;46458;50.966;7.002;2023-06-22T05:02:42;10.15;;;7.45;;
20383;SDS011;46458;50.966;7.002;2023-06-22T05:05:12;8.45;;;7.55;;
20383;SDS011;46458;50.966;7.002;2023-06-22T05:07:42;8.60;;;7.70;;
20383;SDS011;46458;50.966;7.002;2023-06-22T05:10:16;8.15;;;7.45;;
20383;SDS011;46458;50.966;7.002;2023-06-22T05:12:45;8.77;;;7.97;;
20383;SDS011;46458;50.966;7.002;2023-06-22T05:15:14;8.60;;;7.80;;
20383;SDS011;46458;50.966;7.002;2023-06-22T05:17:46;8.48;;;7.65;;
20383;SDS011;46458;50.966;7.002;2023-06-22T05:20:18;8.57;;;7.70;;
20383;SDS011;46458;50.966;7.002;2023-06-22T05:22:47;8.40;;;7.50;;
20383;SDS011;46458;50.966;7.002;2023-06-22T05:25:19;8.40;;;7.60;;
20383;SDS011;46458;50.966;7.002;2023-06-22T05:27:48;7.70;;;7.00;;
20383;SDS011;46458;50.966;7.002;2023-06-22T05:30:17;8.25;;;7.25;;
20383;SDS011;46458;50.966;7.002;2023-06-22T05:32:46;9.35;;;7.80;;
20383;SDS011;46458;50.966;7.002;2023-06-22T05:35:20;8.27;;;7.45;;
20383;SDS011;46458;50.966;7.002;2023-06-22T05:37:49;9.68;;;7.80;;
20383;SDS011;46458;50.966;7.002;2023-06-22T05:40:20;8.50;;;7.70;;
20383;SDS011;46458;50.966;7.002;2023-06-22T05:42:50;8.15;;;7.40;;
20383;SDS011;46458;50.966;7.002;2023-06-22T05:45:19;7.85;;;7.13;;
20383;SDS011;46458;50.966;7.002;2023-06-22T05:47:48;8.07;;;7.35;;
20383;SDS011;46458;50.966;7.002;2023-06-22T05:50:17;8.05;;;7.28;;
20383;SDS011;46458;50.966;7.002;2023-06-22T05:52:46;17.40;;;10.10;;
20383;SDS011;46458;50.966;7.002;2023-06-22T05:55:15;8.45;;;7.35;;
20383;SDS011;46458;50.966;7.002;2023-06-22T05:57:46;7.45;;;6.75;;
20383;SDS011;46458;50.966;7.002;2023-06-22T06:00:16;7.80;;;7.10;;
20383;SDS011;46458;50.966;7.002;2023-06-22T06:02:45;11.98;;;10.77;;
20383;SDS011;46458;50.966;7.002;2023-06-22T06:05:14;8.10;;;7.30;;
20383;SDS011;46458;50.966;7.002;2023-06-22T06:07:45;8.73;;;7.82;;
20383;SDS011;46458;50.966;7.002;2023-06-22T06:10:14;9.95;;;8.95;;
20383;SDS011;46458;50.966;7.002;2023-06-22T06:12:43;8.38;;;7.57;;
20383;SDS011;46458;50.966;7.002;2023-06-22T06:15:14;9.88;;;8.18;;
20383;SDS011;46458;50.966;7.002;2023-06-22T06:17:46;8.63;;;7.90;;
20383;SDS011;46458;50.966;7.002;2023-06-22T06:20:15;9.98;;;9.07;;
20383;SDS011;46458;50.966;7.002;2023-06-22T06:22:46;9.38;;;8.45;;
20383;SDS011;46458;50.966;7.002;2023-06-22T06:25:15;11.13;;;8.60;;
20383;SDS011;46458;50.966;7.002;2023-06-22T06:27:45;8.55;;;7.65;;
20383;SDS011;46458;50.966;7.002;2023-06-22T06:30:20;8.85;;;8.05;;
20383;SDS011;46458;50.966;7.002;2023-06-22T06:32:50;8.82;;;8.02;;
20383;SDS011;46458;50.966;7.002;2023-06-22T06:35:19;8.45;;;7.55;;
20383;SDS011;46458;50.966;7.002;2023-06-22T06:37:48;9.43;;;8.43;;
20383;SDS011;46458;50.966;7.002;2023-06-22T06:40:18;9.50;;;8.60;;
20383;SDS011;46458;50.966;7.002;2023-06-22T06:42:52;9.00;;;8.15;;
20383;SDS011;46458;50.966;7.002;2023-06-22T06:45:24;8.43;;;7.65;;
20383;SDS011;46458;50.966;7.002;2023-06-22T06:47:56;9.80;;;8.25;;
20383;SDS011;46458;50.966;7.002;2023-06-22T06:50:24;9.75;;;8.40;;
20383;SDS011;46458;50.966;7.002;2023-06-22T06:52:53;8.80;;;7.63;;
20383;SDS011;46458;50.966;7.002;2023-06-22T06:55:24;11.57;;;10.50;;
20383;SDS011;46458;50.966;7.002;2023-06-22T06:57:54;10.55;;;9.45;;
20383;SDS011;46458;50.966;7.002;2023-06-22T07:00:25;9.55;;;8.60;;
20383;SDS011;46458;50.966;7.002;2023-06-22T07:02:56;9.25;;;8.18;;
20383;SDS011;46458;50.966;7.002;2023-06-22T07:05:25;9.25;;;8.35;;
20383;SDS011;46458;50.966;7.002;2023-06-22T07:07:54;14.23;;;9.30;;
20383;SDS011;46458;50.966;7.002;2023-06-22T07:10:23;9.77;;;8.45;;
20383;SDS011;46458;50.966;7.002;2023-06-22T07:12:57;10.30;;;8.25;;
20383;SDS011;46458;50.966;7.002;2023-06-22T07:15:29;9.32;;;8.30;;
20383;SDS011;46458;50.966;7.002;2023-06-22T07:18:00;10.05;;;9.05;;
20383;SDS011;46458;50.966;7.002;2023-06-22T07:20:29;9.38;;;7.93;;
20383;SDS011;46458;50.966;7.002;2023-06-22T07:23:01;9.50;;;8.60;;
20383;SDS011;46458;50.966;7.002;2023-06-22T07:25:30;8.98;;;6.80;;
20383;SDS011;46458;50.966;7.002;2023-06-22T07:27:59;8.70;;;7.57;;
20383;SDS011;46458;50.966;7.002;2023-06-22T07:30:32;8.43;;;7.63;;
20383;SDS011;46458;50.966;7.002;2023-06-22T07:33:02;8.95;;;8.05;;
20383;SDS011;46458;50.966;7.002;2023-06-22T07:35:33;8.55;;;7.65;;
20383;SDS011;46458;50.966;7.002;2023-06-22T07:38:02;12.27;;;10.43;;
20383;SDS011;46458;50.966;7.002;2023-06-22T07:40:34;11.05;;;9.98;;
20383;SDS011;46458;50.966;7.002;2023-06-22T07:43:07;9.85;;;8.95;;
20383;SDS011;46458;50.966;7.002;2023-06-22T07:45:38;19.08;;;16.55;;
20383;SDS011;46458;50.966;7.002;2023-06-22T07:48:08;9.57;;;8.68;;
20383;SDS011;46458;50.966;7.002;2023-06-22T07:50:37;10.60;;;8.05;;
20383;SDS011;46458;50.966;7.002;2023-06-22T07:53:08;8.93;;;8.02;;
20383;SDS011;46458;50.966;7.002;2023-06-22T07:55:37;10.45;;;7.82;;
20383;SDS011;46458;50.966;7.002;2023-06-22T07:58:07;6.93;;;6.22;;
20383;SDS011;46458;50.966;7.002;2023-06-22T08:00:39;8.60;;;6.63;;
20383;SDS011;46458;50.966;7.002;2023-06-22T08:03:07;8.05;;;7.25;;
20383;SDS011;46458;50.966;7.002;2023-06-22T08:05:37;8.02;;;7.22;;
20383;SDS011;46458;50.966;7.002;2023-06-22T08:08:06;7.88;;;7.18;;
20383;SDS011;46458;50.966;7.002;2023-06-22T08:10:40;7.25;;;6.57;;
20383;SDS011;46458;50.966;7.002;2023-06-22T08:13:09;6.70;;;6.10;;
20383;SDS011;46458;50.966;7.002;2023-06-22T08:15:41;7.72;;;6.95;;
20383;SDS011;46458;50.966;7.002;2023-06-22T08:18:12;10.95;;;8.65;;
20383;SDS011;46458;50.966;7.002;2023-06-22T08:20:44;8.35;;;7.60;;
20383;SDS011;46458;50.966;7.002;2023-06-22T08:23:13;8.27;;;7.18;;
20383;SDS011;46458;50.966;7.002;2023-06-22T08:25:42;6.68;;;5.97;;
20383;SDS011;46458;50.966;7.002;2023-06-22T08:28:11;7.18;;;6.47;;
20383;SDS011;46458;50.966;7.002;2023-06-22T08:30:43;6.88;;;6.28;;
20383;SDS011;46458;50.966;7.002;2023-06-22T08:33:12;6.53;;;5.95;;
20383;SDS011;46458;50.966;7.002;2023-06-22T08:35:43;8.25;;;6.50;;
20383;SDS011;46458;50.966;7.002;2023-06-22T08:38:12;7.03;;;6.40;;
20383;SDS011;46458;50.966;7.002;2023-06-22T08:40:44;7.15;;;6.45;;
20383;SDS011;46458;50.966;7.002;2023-06-22T08:43:13;7.22;;;6.53;;
20383;SDS011;46458;50.966;7.002;2023-06-22T08:45:45;7.93;;;7.07;;
20383;SDS011;46458;50.966;7.002;2023-06-22T08:48:14;7.28;;;6.68;;
20383;SDS011;46458;50.966;7.002;2023-06-22T08:50:42;8.00;;;7.30;;
20383;SDS011;46458;50.966;7.002;2023-06-22T08:53:14;8.23;;;7.43;;
20383;SDS011;46458;50.966;7.002;2023-06-22T08:55:43;7.93;;;7.22;;
20383;SDS011;46458;50.966;7.002;2023-06-22T08:58:12;7.95;;;7.03;;
20383;SDS011;46458;50.966;7.002;2023-06-22T09:00:41;8.75;;;7.88;;
20383;SDS011;46458;50.966;7.002;2023-06-22T09:03:12;10.40;;;6.95;;
20383;SDS011;46458;50.966;7.002;2023-06-22T09:05:42;9.25;;;8.27;;
20383;SDS011;46458;50.966;7.002;2023-06-22T09:08:14;7.88;;;7.07;;
20383;SDS011;46458;50.966;7.002;2023-06-22T09:10:43;7.40;;;6.78;;
20383;SDS011;46458;50.966;7.002;2023-06-22T09:13:12;8.05;;;7.25;;
20383;SDS011;46458;50.966;7.002;2023-06-22T09:15:41;7.47;;;6.57;;
20383;SDS011;46458;50.966;7.002;2023-06-22T09:18:15;7.65;;;6.72;;
20383;SDS011;46458;50.966;7.002;2023-06-22T09:20:47;7.30;;;6.60;;
20383;SDS011;46458;50.966;7.002;2023-06-22T09:23:19;7.38;;;6.43;;
20383;SDS011;46458;50.966;7.002;2023-06-22T09:25:55;8.00;;;7.25;;
20383;SDS011;46458;50.966;7.002;2023-06-22T09:28:24;7.55;;;6.85;;
20383;SDS011;46458;50.966;7.002;2023-06-22T09:30:53;7.25;;;6.65;;
20383;SDS011;46458;50.966;7.002;2023-06-22T09:33:27;7.25;;;6.55;;
20383;SDS011;46458;50.966;7.002;2023-06-22T09:35:56;7.07;;;6.35;;
20383;SDS011;46458;50.966;7.002;2023-06-22T09:38:24;7.43;;;6.72;;
20383;SDS011;46458;50.966;7.002;2023-06-22T09:40:53;7.50;;;6.80;;
20383;SDS011;46458;50.966;7.002;2023-06-22T09:43:25;8.00;;;6.95;;
20383;SDS011;46458;50.966;7.002;2023-06-22T09:45:56;7.55;;;6.85;;
20383;SDS011;46458;50.966;7.002;2023-06-22T09:48:27;8.02;;;6.55;;
20383;SDS011;46458;50.966;7.002;2023-06-22T09:50:57;6.85;;;6.25;;
20383;SDS011;46458;50.966;7.002;2023-06-22T09:53:26;7.22;;;6.53;;
20383;SDS011;46458;50.966;7.002;2023-06-22T09:55:57;7.32;;;6.63;;
20383;SDS011;46458;50.966;7.002;2023-06-22T09:58:27;7.80;;;6.93;;
20383;SDS011;46458;50.966;7.002;2023-06-22T10:00:55;7.70;;;7.00;;
20383;SDS011;46458;50.966;7.002;2023-06-22T10:03:24;7.85;;;7.07;;
20383;SDS011;46458;50.966;7.002;2023-06-22T10:05:56;7.03;;;6.43;;
20383;SDS011;46458;50.966;7.002;2023-06-22T10:08:25;7.30;;;6.60;;
20383;SDS011;46458;50.966;7.002;2023-06-22T10:10:57;8.25;;;7.40;;
20383;SDS011;46458;50.966;7.002;2023-06-22T10:13:26;8.00;;;7.20;;
20383;SDS011;46458;50.966;7.002;2023-06-22T10:15:55;7.35;;;6.63;;
20383;SDS011;46458;50.966;7.002;2023-06-22T10:18:24;8.35;;;7.55;;
20383;SDS011;46458;50.966;7.002;2023-06-22T10:20:55;9.13;;;7.40;;
20383;SDS011;46458;50.966;7.002;2023-06-22T10:23:24;8.13;;;7.32;;
20383;SDS011;46458;50.966;7.002;2023-06-22T10:25:53;7.55;;;6.88;;
20383;SDS011;46458;50.966;7.002;2023-06-22T10:28:23;8.13;;;7.32;;
20383;SDS011;46458;50.966;7.002;2023-06-22T10:30:52;7.07;;;6.38;;
20383;SDS011;46458;50.966;7.002;2023-06-22T10:33:21;8.02;;;7.20;;
20383;SDS011;46458;50.966;7.002;2023-06-22T10:35:56;9.18;;;7.50;;
20383;SDS011;46458;50.966;7.002;2023-06-22T10:38:25;8.25;;;7.45;;
20383;SDS011;46458;50.966;7.002;2023-06-22T10:40:54;8.25;;;7.45;;
20383;SDS011;46458;50.966;7.002;2023-06-22T10:43:23;8.48;;;7.68;;
20383;SDS011;46458;50.966;7.002;2023-06-22T10:45:52;10.45;;;8.40;;
20383;SDS011;46458;50.966;7.002;2023-06-22T10:48:21;9.45;;;8.45;;
20383;SDS011;46458;50.966;7.002;2023-06-22T10:50:49;10.02;;;8.98;;
20383;SDS011;46458;50.966;7.002;2023-06-22T10:53:21;14.88;;;9.18;;
20383;SDS011;46458;50.966;7.002;2023-06-22T10:55:50;9.98;;;8.93;;
20383;SDS011;46458;50.966;7.002;2023-06-22T10:58:20;10.43;;;8.82;;
20383;SDS011;46458;50.966;7.002;2023-06-22T11:00:51;10.43;;;9.40;;
20383;SDS011;46458;50.966;7.002;2023-06-22T11:03:24;10.52;;;9.43;;
20383;SDS011;46458;50.966;7.002;2023-06-22T11:05:53;13.15;;;10.80;;
20383;SDS011;46458;50.966;7.002;2023-06-22T11:08:24;12.60;;;10.00;;
20383;SDS011;46458;50.966;7.002;2023-06-22T11:10:53;12.45;;;11.20;;
20383;SDS011;46458;50.966;7.002;2023-06-22T11:13:22;11.40;;;9.63;;
20383;SDS011;46458;50.966;7.002;2023-06-22T11:15:54;12.75;;;11.52;;
20383;SDS011;46458;50.966;7.002;2023-06-22T11:18:23;27.90;;;24.55;;
20383;SDS011;46458;50.966;7.002;2023-06-22T11:20:54;11.73;;;10.52;;
20383;SDS011;46458;50.966;7.002;2023-06-22T11:23:25;12.90;;;10.80;;
20383;SDS011;46458;50.966;7.002;2023-06-22T11:25:55;13.23;;;11.85;;
20383;SDS011;46458;50.966;7.002;2023-06-22T11:28:24;13.55;;;11.85;;
20383;SDS011;46458;50.966;7.002;2023-06-22T11:30:53;13.38;;;12.00;;
20383;SDS011;46458;50.966;7.002;2023-06-22T11:33:22;15.98;;;13.57;;
20383;SDS011;46458;50.966;7.002;2023-06-22T11:35:51;14.85;;;13.13;;
20383;SDS011;46458;50.966;7.002;2023-06-22T11:38:21;14.88;;;13.30;;
20383;SDS011;46458;50.966;7.002;2023-06-22T11:40:53;15.07;;;12.48;;
20383;SDS011;46458;50.966;7.002;2023-06-22T11:43:22;13.00;;;11.80;;
20383;SDS011;46458;50.966;7.002;2023-06-22T11:45:51;14.32;;;12.40;;
20383;SDS011;46458;50.966;7.002;2023-06-22T11:48:21;13.20;;;11.90;;
20383;SDS011;46458;50.966;7.002;2023-06-22T11:50:50;13.85;;;12.35;;
20383;SDS011;46458;50.966;7.002;2023-06-22T11:53:20;13.85;;;12.50;;
20383;SDS011;46458;50.966;7.002;2023-06-22T11:55:55;15.85;;;14.05;;
20383;SDS011;46458;50.966;7.002;2023-06-22T11:58:27;16.05;;;14.40;;
20383;SDS011;46458;50.966;7.002;2023-06-22T12:00:56;17.80;;;15.00;;
20383;SDS011;46458;50.966;7.002;2023-06-22T12:03:25;18.02;;;14.70;;
20383;SDS011;46458;50.966;7.002;2023-06-22T12:05:55;15.70;;;13.75;;
20383;SDS011;46458;50.966;7.002;2023-06-22T12:08:24;15.20;;;13.00;;
20383;SDS011;46458;50.966;7.002;2023-06-22T12:10:55;12.75;;;11.45;;
20383;SDS011;46458;50.966;7.002;2023-06-22T12:13:24;13.93;;;12.52;;
20383;SDS011;46458;50.966;7.002;2023-06-22T12:15:53;16.45;;;14.85;;
20383;SDS011;46458;50.966;7.002;2023-06-22T12:18:25;29.33;;;23.90;;
20383;SDS011;46458;50.966;7.002;2023-06-22T12:20:54;13.70;;;12.20;;
20383;SDS011;46458;50.966;7.002;2023-06-22T12:23:23;13.43;;;12.20;;
20383;SDS011;46458;50.966;7.002;2023-06-22T12:25:52;13.50;;;12.20;;
20383;SDS011;46458;50.966;7.002;2023-06-22T12:28:25;13.98;;;12.43;;
20383;SDS011;46458;50.966;7.002;2023-06-22T12:30:54;13.40;;;12.10;;
20383;SDS011;46458;50.966;7.002;2023-06-22T12:33:22;14.43;;;12.93;;
20383;SDS011;46458;50.966;7.002;2023-06-22T12:35:56;14.57;;;13.18;;
20383;SDS011;46458;50.966;7.002;2023-06-22T12:38:24;13.95;;;12.35;;
20383;SDS011;46458;50.966;7.002;2023-06-22T12:40:56;12.40;;;11.20;;
20383;SDS011;46458;50.966;7.002;2023-06-22T12:43:27;12.05;;;10.30;;
20383;SDS011;46458;50.966;7.002;2023-06-22T12:45:56;12.70;;;10.85;;
20383;SDS011;46458;50.966;7.002;2023-06-22T12:48:25;11.20;;;10.10;;
20383;SDS011;46458;50.966;7.002;2023-06-22T12:50:55;12.15;;;10.90;;
20383;SDS011;46458;50.966;7.002;2023-06-22T12:53:26;11.30;;;10.15;;
20383;SDS011;46458;50.966;7.002;2023-06-22T12:55:57;11.57;;;10.48;;
20383;SDS011;46458;50.966;7.002;2023-06-22T12:58:26;10.27;;;9.32;;
20383;SDS011;46458;50.966;7.002;2023-06-22T13:00:55;10.43;;;9.43;;
20383;SDS011;46458;50.966;7.002;2023-06-22T13:03:24;9.35;;;8.45;;
20383;SDS011;46458;50.966;7.002;2023-06-22T13:05:53;10.63;;;9.00;;
20383;SDS011;46458;50.966;7.002;2023-06-22T13:08:22;9.52;;;8.63;;
20383;SDS011;46458;50.966;7.002;2023-06-22T13:10:51;9.80;;;8.90;;
20383;SDS011;46458;50.966;7.002;2023-06-22T13:13:25;9.07;;;8.27;;
20383;SDS011;46458;50.966;7.002;2023-06-22T13:15:54;9.68;;;8.77;;
20383;SDS011;46458;50.966;7.002;2023-06-22T13:18:23;9.38;;;8.48;;
20383;SDS011;46458;50.966;7.002;2023-06-22T13:20:51;8.40;;;7.70;;
20383;SDS011;46458;50.966;7.002;2023-06-22T13:23:20;11.95;;;8.82;;
20383;SDS011;46458;50.966;7.002;2023-06-22T13:25:49;8.80;;;7.97;;
20383;SDS011;46458;50.966;7.002;2023-06-22T13:28:21;8.30;;;7.50;;
20383;SDS011;46458;50.966;7.002;2023-06-22T13:30:57;8.02;;;7.22;;
20383;SDS011;46458;50.966;7.002;2023-06-22T13:33:26;7.45;;;6.75;;
20383;SDS011;46458;50.966;7.002;2023-06-22T13:35:57;7.20;;;6.60;;
20383;SDS011;46458;50.966;7.002;2023-06-22T13:38:26;7.35;;;6.75;;
20383;SDS011;46458;50.966;7.002;2023-06-22T13:40:56;6.70;;;6.07;;
20383;SDS011;46458;50.966;7.002;2023-06-22T13:43:27;6.60;;;6.00;;
20383;SDS011;46458;50.966;7.002;2023-06-22T13:46:02;5.82;;;5.32;;
20383;SDS011;46458;50.966;7.002;2023-06-22T13:48:34;6.57;;;5.93;;
20383;SDS011;46458;50.966;7.002;2023-06-22T13:51:02;6.53;;;5.93;;
20383;SDS011;46458;50.966;7.002;2023-06-22T13:53:31;6.10;;;5.50;;
20383;SDS011;46458;50.966;7.002;2023-06-22T13:56:06;5.22;;;4.72;;
20383;SDS011;46458;50.966;7.002;2023-06-22T13:58:35;5.88;;;4.90;;
20383;SDS011;46458;50.966;7.002;2023-06-22T14:01:06;4.00;;;3.63;;
20383;SDS011;46458;50.966;7.002;2023-06-22T14:03:35;4.97;;;4.47;;
20383;SDS011;46458;50.966;7.002;2023-06-22T14:06:04;4.63;;;4.22;;
20383;SDS011;46458;50.966;7.002;2023-06-22T14:08:36;4.60;;;4.20;;
20383;SDS011;46458;50.966;7.002;2023-06-22T14:11:05;4.47;;;4.07;;
20383;SDS011;46458;50.966;7.002;2023-06-22T14:13:34;4.57;;;4.03;;
20383;SDS011;46458;50.966;7.002;2023-06-22T14:16:06;4.80;;;4.40;;
20383;SDS011;46458;50.966;7.002;2023-06-22T14:18:35;5.63;;;5.22;;
20383;SDS011;46458;50.966;7.002;2023-06-22T14:21:04;5.50;;;5.00;;
20383;SDS011;46458;50.966;7.002;2023-06-22T14:23:32;5.30;;;4.80;;
20383;SDS011;46458;50.966;7.002;2023-06-22T14:26:02;5.38;;;4.88;;
20383;SDS011;46458;50.966;7.002;2023-06-22T14:28:32;5.93;;;5.32;;
20383;SDS011;46458;50.966;7.002;2023-06-22T14:31:00;6.50;;;5.90;;
20383;SDS011;46458;50.966;7.002;2023-06-22T14:33:32;6.30;;;5.70;;
20383;SDS011;46458;50.966;7.002;2023-06-22T14:36:01;6.05;;;5.47;;
20383;SDS011;46458;50.966;7.002;2023-06-22T14:38:32;6.43;;;5.60;;
20383;SDS011;46458;50.966;7.002;2023-06-22T14:41:01;5.65;;;5.15;;
20383;SDS011;46458;50.966;7.002;2023-06-22T14:43:30;5.50;;;5.00;;
20383;SDS011;46458;50.966;7.002;2023-06-22T14:45:59;6.97;;;6.38;;
20383;SDS011;46458;50.966;7.002;2023-06-22T14:48:29;6.82;;;6.18;;
20383;SDS011;46458;50.966;7.002;2023-06-22T14:51:00;9.07;;;8.18;;
20383;SDS011;46458;50.966;7.002;2023-06-22T14:53:32;6.43;;;5.82;;
20383;SDS011;46458;50.966;7.002;2023-06-22T14:56:01;8.52;;;7.63;;
20383;SDS011;46458;50.966;7.002;2023-06-22T14:58:33;6.72;;;6.03;;
20383;SDS011;46458;50.966;7.002;2023-06-22T15:01:02;7.63;;;5.57;;
20383;SDS011;46458;50.966;7.002;2023-06-22T15:03:36;13.18;;;7.45;;